sensor_id;sensor_type;location;lat;lon;timestamp;temperature;humidity
2907;DHT22;1463;51.070;16.998;2023-12-22T00:01:55;6.90;99.90
2907;DHT22;1463;51.070;16.998;2023-12-22T00:04:21;6.80;99.90
2907;DHT22;1463;51.070;16.998;2023-12-22T00:06:49;6.90;99.90
2907;DHT22;1463;51.070;16.998;2023-12-22T00:09:17;6.80;99.90
2907;DHT22;1463;51.070;16.998;2023-12-22T00:11:44;6.80;99.90
2907;DHT22;1463;51.070;16.998;2023-12-22T00:14:11;6.80;99.90
2907;DHT22;1463;51.070;16.998;2023-12-22T00:16:37;6.80;99.90
2907;DHT22;1463;51.070;16.998;2023-12-22T00:19:04;6.80;99.90
2907;DHT22;1463;51.070;16.998;2023-12-22T00:21:31;6.90;99.90
2907;DHT22;1463;51.070;16.998;2023-12-22T00:23:59;6.80;99.90
2907;DHT22;1463;51.070;16.998;2023-12-22T00:26:26;6.80;99.90
2907;DHT22;1463;51.070;16.998;2023-12-22T00:28:52;6.80;99.90
2907;DHT22;1463;51.070;16.998;2023-12-22T00:31:19;6.80;99.90
2907;DHT22;1463;51.070;16.998;2023-12-22T00:33:46;6.80;99.90
2907;DHT22;1463;51.070;16.998;2023-12-22T00:36:12;6.80;99.90
2907;DHT22;1463;51.070;16.998;2023-12-22T00:38:39;6.80;99.90
2907;DHT22;1463;51.070;16.998;2023-12-22T00:41:07;6.80;99.90
2907;DHT22;1463;51.070;16.998;2023-12-22T00:43:34;6.70;99.90
2907;DHT22;1463;51.070;16.998;2023-12-22T00:46:00;6.70;99.90
2907;DHT22;1463;51.070;16.998;2023-12-22T00:48:27;6.70;99.90
2907;DHT22;1463;51.070;16.998;2023-12-22T00:50:54;6.50;99.90
2907;DHT22;1463;51.070;16.998;2023-12-22T00:53:20;6.40;99.90
2907;DHT22;1463;51.070;16.998;2023-12-22T00:55:47;6.20;99.90
2907;DHT22;1463;51.070;16.998;2023-12-22T00:58:14;6.20;99.90
2907;DHT22;1463;51.070;16.998;2023-12-22T01:00:41;6.30;99.90
2907;DHT22;1463;51.070;16.998;2023-12-22T01:03:07;6.30;99.90
2907;DHT22;1463;51.070;16.998;2023-12-22T01:05:36;6.30;99.90
2907;DHT22;1463;51.070;16.998;2023-12-22T01:08:03;6.10;99.90
2907;DHT22;1463;51.070;16.998;2023-12-22T01:10:30;6.20;99.90
2907;DHT22;1463;51.070;16.998;2023-12-22T01:12:56;6.20;99.90
2907;DHT22;1463;51.070;16.998;2023-12-22T01:15:25;6.30;99.90
2907;DHT22;1463;51.070;16.998;2023-12-22T01:17:52;6.10;99.90
2907;DHT22;1463;51.070;16.998;2023-12-22T01:20:19;6.30;99.90
2907;DHT22;1463;51.070;16.998;2023-12-22T01:22:45;6.30;99.90
2907;DHT22;1463;51.070;16.998;2023-12-22T01:25:12;6.20;99.90
2907;DHT22;1463;51.070;16.998;2023-12-22T01:27:39;6.20;99.90
2907;DHT22;1463;51.070;16.998;2023-12-22T01:30:06;6.30;99.90
2907;DHT22;1463;51.070;16.998;2023-12-22T01:32:35;6.30;99.90
2907;DHT22;1463;51.070;16.998;2023-12-22T01:35:02;6.30;99.90
2907;DHT22;1463;51.070;16.998;2023-12-22T01:37:34;6.20;99.90
2907;DHT22;1463;51.070;16.998;2023-12-22T01:40:01;6.30;99.90
2907;DHT22;1463;51.070;16.998;2023-12-22T01:42:28;6.30;99.90
2907;DHT22;1463;51.070;16.998;2023-12-22T01:44:54;6.30;99.90
2907;DHT22;1463;51.070;16.998;2023-12-22T01:47:21;6.20;99.90
2907;DHT22;1463;51.070;16.998;2023-12-22T01:49:49;6.20;99.90
2907;DHT22;1463;51.070;16.998;2023-12-22T01:52:16;6.20;99.90
2907;DHT22;1463;51.070;16.998;2023-12-22T01:54:44;6.10;99.90
2907;DHT22;1463;51.070;16.998;2023-12-22T01:57:14;6.20;99.90
2907;DHT22;1463;51.070;16.998;2023-12-22T01:59:43;6.20;99.90
2907;DHT22;1463;51.070;16.998;2023-12-22T02:02:10;6.10;99.90
2907;DHT22;1463;51.070;16.998;2023-12-22T02:04:36;6.20;99.90
2907;DHT22;1463;51.070;16.998;2023-12-22T02:07:05;6.20;99.90
2907;DHT22;1463;51.070;16.998;2023-12-22T02:09:34;6.10;99.90
2907;DHT22;1463;51.070;16.998;2023-12-22T02:12:01;6.20;99.90
2907;DHT22;1463;51.070;16.998;2023-12-22T02:14:28;6.10;99.90
2907;DHT22;1463;51.070;16.998;2023-12-22T02:17:02;6.10;99.90
2907;DHT22;1463;51.070;16.998;2023-12-22T02:19:40;6.00;99.90
2907;DHT22;1463;51.070;16.998;2023-12-22T02:22:10;5.90;99.90
2907;DHT22;1463;51.070;16.998;2023-12-22T02:24:38;5.90;99.90
2907;DHT22;1463;51.070;16.998;2023-12-22T02:27:10;5.80;99.90
2907;DHT22;1463;51.070;16.998;2023-12-22T02:29:43;5.80;99.90
2907;DHT22;1463;51.070;16.998;2023-12-22T02:32:27;5.70;99.90
2907;DHT22;1463;51.070;16.998;2023-12-22T02:34:56;5.60;99.90
2907;DHT22;1463;51.070;16.998;2023-12-22T02:37:27;5.30;99.90
2907;DHT22;1463;51.070;16.998;2023-12-22T02:39:56;5.30;99.90
2907;DHT22;1463;51.070;16.998;2023-12-22T02:42:23;5.20;99.90
2907;DHT22;1463;51.070;16.998;2023-12-22T02:44:55;4.60;99.90
2907;DHT22;1463;51.070;16.998;2023-12-22T02:47:22;4.40;99.90
2907;DHT22;1463;51.070;16.998;2023-12-22T02:49:49;4.40;99.90
2907;DHT22;1463;51.070;16.998;2023-12-22T02:52:15;4.60;99.90
2907;DHT22;1463;51.070;16.998;2023-12-22T02:54:42;4.60;99.90
2907;DHT22;1463;51.070;16.998;2023-12-22T02:57:10;4.60;99.90
2907;DHT22;1463;51.070;16.998;2023-12-22T02:59:37;4.60;99.90
2907;DHT22;1463;51.070;16.998;2023-12-22T03:02:04;4.70;99.90
2907;DHT22;1463;51.070;16.998;2023-12-22T03:04:30;4.80;99.90
2907;DHT22;1463;51.070;16.998;2023-12-22T03:06:57;4.90;99.90
2907;DHT22;1463;51.070;16.998;2023-12-22T03:09:24;4.90;99.90
2907;DHT22;1463;51.070;16.998;2023-12-22T03:11:50;4.90;99.90
2907;DHT22;1463;51.070;16.998;2023-12-22T03:14:21;4.90;99.90
2907;DHT22;1463;51.070;16.998;2023-12-22T03:16:48;5.00;99.90
2907;DHT22;1463;51.070;16.998;2023-12-22T03:19:14;5.00;99.90
2907;DHT22;1463;51.070;16.998;2023-12-22T03:21:41;5.00;99.90
2907;DHT22;1463;51.070;16.998;2023-12-22T03:24:10;4.90;99.90
2907;DHT22;1463;51.070;16.998;2023-12-22T03:26:37;4.80;99.90
2907;DHT22;1463;51.070;16.998;2023-12-22T03:29:03;4.70;99.90
2907;DHT22;1463;51.070;16.998;2023-12-22T03:31:32;4.70;99.90
2907;DHT22;1463;51.070;16.998;2023-12-22T03:33:58;4.60;99.90
2907;DHT22;1463;51.070;16.998;2023-12-22T03:36:25;4.50;99.90
2907;DHT22;1463;51.070;16.998;2023-12-22T03:38:52;4.60;99.90
2907;DHT22;1463;51.070;16.998;2023-12-22T03:41:18;4.60;99.90
2907;DHT22;1463;51.070;16.998;2023-12-22T03:43:45;4.60;99.90
2907;DHT22;1463;51.070;16.998;2023-12-22T03:46:12;4.60;99.90
2907;DHT22;1463;51.070;16.998;2023-12-22T03:48:40;4.70;99.90
2907;DHT22;1463;51.070;16.998;2023-12-22T03:51:06;4.70;99.90
2907;DHT22;1463;51.070;16.998;2023-12-22T03:53:33;5.20;99.90
2907;DHT22;1463;51.070;16.998;2023-12-22T03:56:00;5.30;99.90
2907;DHT22;1463;51.070;16.998;2023-12-22T03:58:27;5.50;99.90
2907;DHT22;1463;51.070;16.998;2023-12-22T04:00:55;5.70;99.90
2907;DHT22;1463;51.070;16.998;2023-12-22T04:03:21;5.80;99.90
2907;DHT22;1463;51.070;16.998;2023-12-22T04:05:49;5.70;99.90
2907;DHT22;1463;51.070;16.998;2023-12-22T04:08:16;6.00;99.90
2907;DHT22;1463;51.070;16.998;2023-12-22T04:10:43;5.80;99.90
2907;DHT22;1463;51.070;16.998;2023-12-22T04:13:10;6.00;99.90
2907;DHT22;1463;51.070;16.998;2023-12-22T04:15:36;6.00;99.90
2907;DHT22;1463;51.070;16.998;2023-12-22T04:18:04;6.00;99.90
2907;DHT22;1463;51.070;16.998;2023-12-22T04:20:30;6.00;99.90
2907;DHT22;1463;51.070;16.998;2023-12-22T04:22:59;6.10;99.90
2907;DHT22;1463;51.070;16.998;2023-12-22T04:25:25;6.20;99.90
2907;DHT22;1463;51.070;16.998;2023-12-22T04:27:52;6.00;99.90
2907;DHT22;1463;51.070;16.998;2023-12-22T04:30:19;6.10;99.90
2907;DHT22;1463;51.070;16.998;2023-12-22T04:32:45;6.40;99.90
2907;DHT22;1463;51.070;16.998;2023-12-22T04:35:12;6.20;99.90
2907;DHT22;1463;51.070;16.998;2023-12-22T04:37:38;6.20;99.90
2907;DHT22;1463;51.070;16.998;2023-12-22T04:40:07;6.60;99.90
2907;DHT22;1463;51.070;16.998;2023-12-22T04:42:34;6.60;99.90
2907;DHT22;1463;51.070;16.998;2023-12-22T04:45:01;6.70;99.90
2907;DHT22;1463;51.070;16.998;2023-12-22T04:47:28;6.70;99.90
2907;DHT22;1463;51.070;16.998;2023-12-22T04:49:54;6.70;99.90
2907;DHT22;1463;51.070;16.998;2023-12-22T04:52:21;6.70;99.90
2907;DHT22;1463;51.070;16.998;2023-12-22T04:54:47;6.80;99.90
2907;DHT22;1463;51.070;16.998;2023-12-22T04:57:15;6.70;99.90
2907;DHT22;1463;51.070;16.998;2023-12-22T04:59:42;6.80;99.90
2907;DHT22;1463;51.070;16.998;2023-12-22T05:02:09;6.60;99.90
2907;DHT22;1463;51.070;16.998;2023-12-22T05:04:35;6.60;99.90
2907;DHT22;1463;51.070;16.998;2023-12-22T05:07:02;6.70;99.90
2907;DHT22;1463;51.070;16.998;2023-12-22T05:09:32;6.70;99.90
2907;DHT22;1463;51.070;16.998;2023-12-22T05:11:58;6.80;99.90
2907;DHT22;1463;51.070;16.998;2023-12-22T05:14:26;6.70;99.90
2907;DHT22;1463;51.070;16.998;2023-12-22T05:16:53;7.00;99.90
2907;DHT22;1463;51.070;16.998;2023-12-22T05:19:21;6.90;99.90
2907;DHT22;1463;51.070;16.998;2023-12-22T05:21:47;6.70;99.90
2907;DHT22;1463;51.070;16.998;2023-12-22T05:24:14;6.60;99.90
2907;DHT22;1463;51.070;16.998;2023-12-22T05:26:41;6.60;99.90
2907;DHT22;1463;51.070;16.998;2023-12-22T05:29:08;6.70;99.90
2907;DHT22;1463;51.070;16.998;2023-12-22T05:31:37;6.70;99.90
2907;DHT22;1463;51.070;16.998;2023-12-22T05:34:05;6.70;99.90
2907;DHT22;1463;51.070;16.998;2023-12-22T05:36:32;6.80;99.90
2907;DHT22;1463;51.070;16.998;2023-12-22T05:38:58;6.70;99.90
2907;DHT22;1463;51.070;16.998;2023-12-22T05:41:25;6.60;99.90
2907;DHT22;1463;51.070;16.998;2023-12-22T05:43:51;7.00;99.90
2907;DHT22;1463;51.070;16.998;2023-12-22T05:46:18;7.10;99.90
2907;DHT22;1463;51.070;16.998;2023-12-22T05:48:46;6.70;99.90
2907;DHT22;1463;51.070;16.998;2023-12-22T05:51:13;6.80;99.90
2907;DHT22;1463;51.070;16.998;2023-12-22T05:53:39;6.60;99.90
2907;DHT22;1463;51.070;16.998;2023-12-22T05:56:17;6.70;99.90
2907;DHT22;1463;51.070;16.998;2023-12-22T05:58:44;6.80;99.90
2907;DHT22;1463;51.070;16.998;2023-12-22T06:01:14;6.70;99.90
2907;DHT22;1463;51.070;16.998;2023-12-22T06:03:41;6.70;99.90
2907;DHT22;1463;51.070;16.998;2023-12-22T06:06:09;6.60;99.90
2907;DHT22;1463;51.070;16.998;2023-12-22T06:08:37;6.50;99.90
2907;DHT22;1463;51.070;16.998;2023-12-22T06:11:03;6.40;99.90
2907;DHT22;1463;51.070;16.998;2023-12-22T06:13:30;6.60;99.90
2907;DHT22;1463;51.070;16.998;2023-12-22T06:15:57;6.60;99.90
2907;DHT22;1463;51.070;16.998;2023-12-22T06:18:23;6.60;99.90
2907;DHT22;1463;51.070;16.998;2023-12-22T06:20:50;6.70;99.90
2907;DHT22;1463;51.070;16.998;2023-12-22T06:23:18;6.50;99.90
2907;DHT22;1463;51.070;16.998;2023-12-22T06:25:45;5.70;99.90
2907;DHT22;1463;51.070;16.998;2023-12-22T06:28:11;5.40;99.90
2907;DHT22;1463;51.070;16.998;2023-12-22T06:30:38;5.30;99.90
2907;DHT22;1463;51.070;16.998;2023-12-22T06:33:05;5.20;99.90
2907;DHT22;1463;51.070;16.998;2023-12-22T06:35:31;5.00;99.90
2907;DHT22;1463;51.070;16.998;2023-12-22T06:37:59;5.10;99.90
2907;DHT22;1463;51.070;16.998;2023-12-22T06:40:30;5.00;99.90
2907;DHT22;1463;51.070;16.998;2023-12-22T06:42:57;5.00;99.90
2907;DHT22;1463;51.070;16.998;2023-12-22T06:45:23;4.90;99.90
2907;DHT22;1463;51.070;16.998;2023-12-22T06:47:50;4.90;99.90
2907;DHT22;1463;51.070;16.998;2023-12-22T06:50:17;4.80;99.90
2907;DHT22;1463;51.070;16.998;2023-12-22T06:52:43;4.70;99.90
2907;DHT22;1463;51.070;16.998;2023-12-22T06:55:10;4.70;99.90
2907;DHT22;1463;51.070;16.998;2023-12-22T06:57:38;4.60;99.90
2907;DHT22;1463;51.070;16.998;2023-12-22T07:00:06;4.70;99.90
2907;DHT22;1463;51.070;16.998;2023-12-22T07:02:33;4.70;99.90
2907;DHT22;1463;51.070;16.998;2023-12-22T07:05:01;4.70;99.90
2907;DHT22;1463;51.070;16.998;2023-12-22T07:07:32;5.80;99.90
2907;DHT22;1463;51.070;16.998;2023-12-22T07:09:59;6.20;99.90
2907;DHT22;1463;51.070;16.998;2023-12-22T07:12:25;6.10;99.90
2907;DHT22;1463;51.070;16.998;2023-12-22T07:14:53;5.80;99.90
2907;DHT22;1463;51.070;16.998;2023-12-22T07:17:20;6.10;99.90
2907;DHT22;1463;51.070;16.998;2023-12-22T07:19:47;6.10;99.90
2907;DHT22;1463;51.070;16.998;2023-12-22T07:22:17;6.10;99.90
2907;DHT22;1463;51.070;16.998;2023-12-22T07:24:44;6.20;99.90
2907;DHT22;1463;51.070;16.998;2023-12-22T07:27:11;6.10;99.90
2907;DHT22;1463;51.070;16.998;2023-12-22T07:29:38;6.20;99.90
2907;DHT22;1463;51.070;16.998;2023-12-22T07:32:06;6.10;99.90
2907;DHT22;1463;51.070;16.998;2023-12-22T07:34:33;6.30;99.90
2907;DHT22;1463;51.070;16.998;2023-12-22T07:37:00;6.30;99.90
2907;DHT22;1463;51.070;16.998;2023-12-22T07:39:26;6.30;99.90
2907;DHT22;1463;51.070;16.998;2023-12-22T07:41:53;6.30;99.90
2907;DHT22;1463;51.070;16.998;2023-12-22T07:44:19;6.40;99.90
2907;DHT22;1463;51.070;16.998;2023-12-22T07:46:56;6.20;99.90
2907;DHT22;1463;51.070;16.998;2023-12-22T07:49:25;6.10;99.90
2907;DHT22;1463;51.070;16.998;2023-12-22T07:51:52;6.00;99.90
2907;DHT22;1463;51.070;16.998;2023-12-22T07:54:19;6.10;99.90
2907;DHT22;1463;51.070;16.998;2023-12-22T07:56:46;6.00;99.90
2907;DHT22;1463;51.070;16.998;2023-12-22T07:59:12;6.10;99.90
2907;DHT22;1463;51.070;16.998;2023-12-22T08:01:40;6.30;99.90
2907;DHT22;1463;51.070;16.998;2023-12-22T08:04:06;6.30;99.90
2907;DHT22;1463;51.070;16.998;2023-12-22T08:06:35;6.00;99.90
2907;DHT22;1463;51.070;16.998;2023-12-22T08:09:02;6.20;99.90
2907;DHT22;1463;51.070;16.998;2023-12-22T08:11:28;6.40;99.90
2907;DHT22;1463;51.070;16.998;2023-12-22T08:13:55;6.50;99.90
2907;DHT22;1463;51.070;16.998;2023-12-22T08:16:21;6.80;99.90
2907;DHT22;1463;51.070;16.998;2023-12-22T08:18:48;6.80;99.90
2907;DHT22;1463;51.070;16.998;2023-12-22T08:21:16;6.50;99.90
2907;DHT22;1463;51.070;16.998;2023-12-22T08:23:44;6.60;99.90
2907;DHT22;1463;51.070;16.998;2023-12-22T08:26:10;6.60;99.90
2907;DHT22;1463;51.070;16.998;2023-12-22T08:28:37;6.60;99.90
2907;DHT22;1463;51.070;16.998;2023-12-22T08:31:04;6.50;99.90
2907;DHT22;1463;51.070;16.998;2023-12-22T08:33:31;6.80;99.90
2907;DHT22;1463;51.070;16.998;2023-12-22T08:35:57;6.60;99.90
2907;DHT22;1463;51.070;16.998;2023-12-22T08:38:24;6.70;99.90
2907;DHT22;1463;51.070;16.998;2023-12-22T08:40:54;6.70;99.90
2907;DHT22;1463;51.070;16.998;2023-12-22T08:43:20;6.90;99.90
2907;DHT22;1463;51.070;16.998;2023-12-22T08:45:47;6.80;99.90
2907;DHT22;1463;51.070;16.998;2023-12-22T08:48:14;6.90;99.90
2907;DHT22;1463;51.070;16.998;2023-12-22T08:50:40;6.70;99.90
2907;DHT22;1463;51.070;16.998;2023-12-22T08:53:07;6.50;99.90
2907;DHT22;1463;51.070;16.998;2023-12-22T08:55:33;6.50;99.90
2907;DHT22;1463;51.070;16.998;2023-12-22T08:58:01;6.50;99.90
2907;DHT22;1463;51.070;16.998;2023-12-22T09:00:28;6.70;99.90
2907;DHT22;1463;51.070;16.998;2023-12-22T09:02:55;6.60;99.90
2907;DHT22;1463;51.070;16.998;2023-12-22T09:05:21;5.60;99.90
2907;DHT22;1463;51.070;16.998;2023-12-22T09:07:50;4.80;99.90
2907;DHT22;1463;51.070;16.998;2023-12-22T09:10:17;4.40;99.90
2907;DHT22;1463;51.070;16.998;2023-12-22T09:12:44;4.20;99.90
2907;DHT22;1463;51.070;16.998;2023-12-22T09:15:12;4.20;99.90
2907;DHT22;1463;51.070;16.998;2023-12-22T09:17:39;4.20;99.90
2907;DHT22;1463;51.070;16.998;2023-12-22T09:20:07;4.20;99.90
2907;DHT22;1463;51.070;16.998;2023-12-22T09:22:34;4.30;99.90
2907;DHT22;1463;51.070;16.998;2023-12-22T09:25:01;4.10;99.90
2907;DHT22;1463;51.070;16.998;2023-12-22T09:27:30;4.30;99.90
2907;DHT22;1463;51.070;16.998;2023-12-22T09:29:57;4.20;99.90
2907;DHT22;1463;51.070;16.998;2023-12-22T09:32:25;4.20;99.90
2907;DHT22;1463;51.070;16.998;2023-12-22T09:34:52;4.20;99.90
2907;DHT22;1463;51.070;16.998;2023-12-22T09:37:20;4.50;99.90
2907;DHT22;1463;51.070;16.998;2023-12-22T09:39:47;4.50;99.90
2907;DHT22;1463;51.070;16.998;2023-12-22T09:42:13;4.50;99.90
2907;DHT22;1463;51.070;16.998;2023-12-22T09:44:43;4.50;99.90
2907;DHT22;1463;51.070;16.998;2023-12-22T09:47:10;4.50;99.90
2907;DHT22;1463;51.070;16.998;2023-12-22T09:49:39;4.50;99.90
2907;DHT22;1463;51.070;16.998;2023-12-22T09:52:07;4.80;99.90
2907;DHT22;1463;51.070;16.998;2023-12-22T09:54:34;4.60;99.90
2907;DHT22;1463;51.070;16.998;2023-12-22T09:57:03;4.60;99.90
2907;DHT22;1463;51.070;16.998;2023-12-22T09:59:31;4.60;99.90
2907;DHT22;1463;51.070;16.998;2023-12-22T10:02:00;4.70;99.90
2907;DHT22;1463;51.070;16.998;2023-12-22T10:04:27;4.70;99.90
2907;DHT22;1463;51.070;16.998;2023-12-22T10:06:58;4.90;99.90
2907;DHT22;1463;51.070;16.998;2023-12-22T10:09:28;4.80;99.90
2907;DHT22;1463;51.070;16.998;2023-12-22T10:11:56;4.90;99.90
2907;DHT22;1463;51.070;16.998;2023-12-22T10:14:23;4.80;99.90
2907;DHT22;1463;51.070;16.998;2023-12-22T10:16:51;5.00;99.90
2907;DHT22;1463;51.070;16.998;2023-12-22T10:19:18;5.20;99.90
2907;DHT22;1463;51.070;16.998;2023-12-22T10:21:45;5.30;99.90
2907;DHT22;1463;51.070;16.998;2023-12-22T10:24:38;5.20;99.90
2907;DHT22;1463;51.070;16.998;2023-12-22T10:27:05;5.40;99.90
2907;DHT22;1463;51.070;16.998;2023-12-22T10:29:32;5.40;99.90
2907;DHT22;1463;51.070;16.998;2023-12-22T10:32:00;5.40;99.90
2907;DHT22;1463;51.070;16.998;2023-12-22T10:34:28;5.50;99.90
2907;DHT22;1463;51.070;16.998;2023-12-22T10:36:54;5.90;99.90
2907;DHT22;1463;51.070;16.998;2023-12-22T10:39:21;6.20;99.90
2907;DHT22;1463;51.070;16.998;2023-12-22T10:41:49;6.20;99.90
2907;DHT22;1463;51.070;16.998;2023-12-22T10:44:16;6.30;99.90
2907;DHT22;1463;51.070;16.998;2023-12-22T10:46:43;6.40;99.90
2907;DHT22;1463;51.070;16.998;2023-12-22T10:49:10;6.60;99.90
2907;DHT22;1463;51.070;16.998;2023-12-22T10:51:36;6.60;99.90
2907;DHT22;1463;51.070;16.998;2023-12-22T10:54:04;6.60;99.90
2907;DHT22;1463;51.070;16.998;2023-12-22T10:56:32;6.70;99.90
2907;DHT22;1463;51.070;16.998;2023-12-22T10:59:00;6.90;99.90
2907;DHT22;1463;51.070;16.998;2023-12-22T11:01:29;6.80;99.90
2907;DHT22;1463;51.070;16.998;2023-12-22T11:03:58;7.00;99.90
2907;DHT22;1463;51.070;16.998;2023-12-22T11:06:28;7.00;99.90
2907;DHT22;1463;51.070;16.998;2023-12-22T11:08:56;6.60;99.90
2907;DHT22;1463;51.070;16.998;2023-12-22T11:11:27;6.40;99.90
2907;DHT22;1463;51.070;16.998;2023-12-22T11:13:56;6.20;99.90
2907;DHT22;1463;51.070;16.998;2023-12-22T11:16:24;5.90;99.90
2907;DHT22;1463;51.070;16.998;2023-12-22T11:18:53;5.90;99.90
2907;DHT22;1463;51.070;16.998;2023-12-22T11:21:21;5.50;99.90
2907;DHT22;1463;51.070;16.998;2023-12-22T11:23:49;5.50;99.90
2907;DHT22;1463;51.070;16.998;2023-12-22T11:26:17;5.30;99.90
2907;DHT22;1463;51.070;16.998;2023-12-22T11:28:45;5.40;99.90
2907;DHT22;1463;51.070;16.998;2023-12-22T11:31:12;5.20;99.90
2907;DHT22;1463;51.070;16.998;2023-12-22T11:33:43;5.50;99.90
2907;DHT22;1463;51.070;16.998;2023-12-22T11:36:12;6.20;99.90
2907;DHT22;1463;51.070;16.998;2023-12-22T11:38:40;7.80;99.90
2907;DHT22;1463;51.070;16.998;2023-12-22T11:41:09;7.90;99.90
2907;DHT22;1463;51.070;16.998;2023-12-22T11:43:37;7.80;99.90
2907;DHT22;1463;51.070;16.998;2023-12-22T11:46:04;7.50;99.90
2907;DHT22;1463;51.070;16.998;2023-12-22T11:48:31;7.50;99.90
2907;DHT22;1463;51.070;16.998;2023-12-22T11:51:00;7.90;99.90
2907;DHT22;1463;51.070;16.998;2023-12-22T11:53:30;8.10;99.90
2907;DHT22;1463;51.070;16.998;2023-12-22T11:56:01;8.30;99.90
2907;DHT22;1463;51.070;16.998;2023-12-22T11:58:37;8.30;99.90
2907;DHT22;1463;51.070;16.998;2023-12-22T12:01:06;8.40;99.40
2907;DHT22;1463;51.070;16.998;2023-12-22T12:03:36;8.00;98.70
2907;DHT22;1463;51.070;16.998;2023-12-22T12:06:14;8.30;98.70
2907;DHT22;1463;51.070;16.998;2023-12-22T12:08:41;8.30;98.10
2907;DHT22;1463;51.070;16.998;2023-12-22T12:11:08;8.50;97.40
2907;DHT22;1463;51.070;16.998;2023-12-22T12:13:41;8.30;96.40
2907;DHT22;1463;51.070;16.998;2023-12-22T12:16:08;8.40;96.00
2907;DHT22;1463;51.070;16.998;2023-12-22T12:18:36;8.20;95.90
2907;DHT22;1463;51.070;16.998;2023-12-22T12:21:06;8.40;96.10
2907;DHT22;1463;51.070;16.998;2023-12-22T12:23:34;8.50;95.40
2907;DHT22;1463;51.070;16.998;2023-12-22T12:26:01;8.50;95.10
2907;DHT22;1463;51.070;16.998;2023-12-22T12:28:29;8.50;95.00
2907;DHT22;1463;51.070;16.998;2023-12-22T12:30:58;8.30;94.20
2907;DHT22;1463;51.070;16.998;2023-12-22T12:33:26;8.60;94.60
2907;DHT22;1463;51.070;16.998;2023-12-22T12:35:53;8.40;94.20
2907;DHT22;1463;51.070;16.998;2023-12-22T12:38:21;8.30;93.20
2907;DHT22;1463;51.070;16.998;2023-12-22T12:40:51;8.20;93.00
2907;DHT22;1463;51.070;16.998;2023-12-22T12:43:18;8.30;93.40
2907;DHT22;1463;51.070;16.998;2023-12-22T12:45:44;8.30;93.20
2907;DHT22;1463;51.070;16.998;2023-12-22T12:48:16;8.20;93.10
2907;DHT22;1463;51.070;16.998;2023-12-22T12:50:44;8.10;96.00
2907;DHT22;1463;51.070;16.998;2023-12-22T12:53:11;8.40;97.20
2907;DHT22;1463;51.070;16.998;2023-12-22T12:55:38;8.40;94.70
2907;DHT22;1463;51.070;16.998;2023-12-22T12:58:06;8.30;95.80
2907;DHT22;1463;51.070;16.998;2023-12-22T13:00:33;8.30;95.10
2907;DHT22;1463;51.070;16.998;2023-12-22T13:03:03;8.20;94.70
2907;DHT22;1463;51.070;16.998;2023-12-22T13:05:30;8.40;94.40
2907;DHT22;1463;51.070;16.998;2023-12-22T13:08:06;8.00;93.10
2907;DHT22;1463;51.070;16.998;2023-12-22T13:10:34;8.00;94.00
2907;DHT22;1463;51.070;16.998;2023-12-22T13:13:00;8.00;94.30
2907;DHT22;1463;51.070;16.998;2023-12-22T13:15:29;7.90;93.30
2907;DHT22;1463;51.070;16.998;2023-12-22T13:17:56;8.00;94.50
2907;DHT22;1463;51.070;16.998;2023-12-22T13:20:24;8.00;93.10
2907;DHT22;1463;51.070;16.998;2023-12-22T13:22:51;7.60;92.80
2907;DHT22;1463;51.070;16.998;2023-12-22T13:25:18;8.00;94.00
2907;DHT22;1463;51.070;16.998;2023-12-22T13:27:47;7.80;93.50
2907;DHT22;1463;51.070;16.998;2023-12-22T13:30:14;7.80;94.00
2907;DHT22;1463;51.070;16.998;2023-12-22T13:32:42;7.90;92.90
2907;DHT22;1463;51.070;16.998;2023-12-22T13:35:08;8.00;93.20
2907;DHT22;1463;51.070;16.998;2023-12-22T13:37:40;7.90;93.50
2907;DHT22;1463;51.070;16.998;2023-12-22T13:40:08;7.90;94.30
2907;DHT22;1463;51.070;16.998;2023-12-22T13:42:35;7.90;93.50
2907;DHT22;1463;51.070;16.998;2023-12-22T13:45:04;7.90;93.80
2907;DHT22;1463;51.070;16.998;2023-12-22T13:47:30;7.60;93.20
2907;DHT22;1463;51.070;16.998;2023-12-22T13:49:59;7.80;93.60
2907;DHT22;1463;51.070;16.998;2023-12-22T13:52:26;7.80;93.60
2907;DHT22;1463;51.070;16.998;2023-12-22T13:54:53;7.60;93.50
2907;DHT22;1463;51.070;16.998;2023-12-22T13:57:22;7.50;93.00
2907;DHT22;1463;51.070;16.998;2023-12-22T13:59:49;7.60;93.20
2907;DHT22;1463;51.070;16.998;2023-12-22T14:02:19;7.40;93.00
2907;DHT22;1463;51.070;16.998;2023-12-22T14:04:47;7.90;94.40
2907;DHT22;1463;51.070;16.998;2023-12-22T14:07:15;7.60;93.20
2907;DHT22;1463;51.070;16.998;2023-12-22T14:09:42;7.60;92.20
2907;DHT22;1463;51.070;16.998;2023-12-22T14:12:08;7.50;92.50
2907;DHT22;1463;51.070;16.998;2023-12-22T14:14:35;7.50;92.50
2907;DHT22;1463;51.070;16.998;2023-12-22T14:17:02;7.50;92.50
2907;DHT22;1463;51.070;16.998;2023-12-22T14:19:28;7.40;92.50
2907;DHT22;1463;51.070;16.998;2023-12-22T14:21:55;7.20;92.30
2907;DHT22;1463;51.070;16.998;2023-12-22T14:24:23;7.30;92.60
2907;DHT22;1463;51.070;16.998;2023-12-22T14:26:53;7.40;92.70
2907;DHT22;1463;51.070;16.998;2023-12-22T14:29:20;7.10;92.20
2907;DHT22;1463;51.070;16.998;2023-12-22T14:31:48;7.10;92.10
2907;DHT22;1463;51.070;16.998;2023-12-22T14:34:14;7.20;92.30
2907;DHT22;1463;51.070;16.998;2023-12-22T14:36:42;7.30;92.40
2907;DHT22;1463;51.070;16.998;2023-12-22T14:39:09;7.00;92.20
2907;DHT22;1463;51.070;16.998;2023-12-22T14:41:39;7.00;92.80
2907;DHT22;1463;51.070;16.998;2023-12-22T14:44:07;7.30;93.00
2907;DHT22;1463;51.070;16.998;2023-12-22T14:46:37;7.20;93.00
2907;DHT22;1463;51.070;16.998;2023-12-22T14:49:04;6.90;92.90
2907;DHT22;1463;51.070;16.998;2023-12-22T14:51:34;7.00;93.30
2907;DHT22;1463;51.070;16.998;2023-12-22T14:54:01;7.60;95.40
2907;DHT22;1463;51.070;16.998;2023-12-22T14:56:28;7.60;94.50
2907;DHT22;1463;51.070;16.998;2023-12-22T14:58:56;7.40;95.00
2907;DHT22;1463;51.070;16.998;2023-12-22T15:01:22;7.10;95.10
2907;DHT22;1463;51.070;16.998;2023-12-22T15:03:49;7.10;94.20
2907;DHT22;1463;51.070;16.998;2023-12-22T15:06:16;6.80;93.50
2907;DHT22;1463;51.070;16.998;2023-12-22T15:08:42;7.20;95.40
2907;DHT22;1463;51.070;16.998;2023-12-22T15:11:09;7.30;95.20
2907;DHT22;1463;51.070;16.998;2023-12-22T15:13:38;6.80;94.10
2907;DHT22;1463;51.070;16.998;2023-12-22T15:16:06;7.00;95.60
2907;DHT22;1463;51.070;16.998;2023-12-22T15:18:33;6.90;94.70
2907;DHT22;1463;51.070;16.998;2023-12-22T15:21:00;6.90;96.30
2907;DHT22;1463;51.070;16.998;2023-12-22T15:23:27;7.20;98.00
2907;DHT22;1463;51.070;16.998;2023-12-22T15:25:55;7.20;98.30
2907;DHT22;1463;51.070;16.998;2023-12-22T15:28:21;7.10;98.30
2907;DHT22;1463;51.070;16.998;2023-12-22T15:30:49;7.10;98.60
2907;DHT22;1463;51.070;16.998;2023-12-22T15:33:18;6.90;96.20
2907;DHT22;1463;51.070;16.998;2023-12-22T15:35:45;6.80;96.00
2907;DHT22;1463;51.070;16.998;2023-12-22T15:38:14;6.70;97.10
2907;DHT22;1463;51.070;16.998;2023-12-22T15:40:40;6.50;97.00
2907;DHT22;1463;51.070;16.998;2023-12-22T15:43:07;6.50;97.00
2907;DHT22;1463;51.070;16.998;2023-12-22T15:45:34;6.30;97.90
2907;DHT22;1463;51.070;16.998;2023-12-22T15:48:00;6.40;98.70
2907;DHT22;1463;51.070;16.998;2023-12-22T15:50:30;6.50;98.20
2907;DHT22;1463;51.070;16.998;2023-12-22T15:52:57;6.50;97.90
2907;DHT22;1463;51.070;16.998;2023-12-22T15:55:23;6.50;98.30
2907;DHT22;1463;51.070;16.998;2023-12-22T15:57:50;6.40;98.00
2907;DHT22;1463;51.070;16.998;2023-12-22T16:00:18;6.30;98.00
2907;DHT22;1463;51.070;16.998;2023-12-22T16:02:44;6.30;98.40
2907;DHT22;1463;51.070;16.998;2023-12-22T16:05:11;6.30;99.50